createdAt,value
2022-09-07T00:02:23.475Z,96.90
2022-09-07T00:05:11.338Z,97.00
2022-09-07T00:07:59.399Z,96.40
2022-09-07T00:10:52.371Z,95.60
2022-09-07T00:13:42.223Z,97.00
2022-09-07T00:16:30.929Z,95.80
2022-09-07T00:19:18.833Z,96.20
2022-09-07T00:22:06.753Z,96.30
2022-09-07T00:24:54.628Z,96.40
2022-09-07T00:27:42.518Z,96.50
2022-09-07T00:30:31.772Z,96.90
2022-09-07T00:33:19.609Z,97.60
2022-09-07T00:36:07.925Z,95.70
2022-09-07T00:38:55.766Z,94.90
2022-09-07T00:41:43.595Z,96.70
2022-09-07T00:45:04.961Z,97.00
2022-09-07T00:47:56.948Z,96.50
2022-09-07T00:50:47.230Z,96.40
2022-09-07T00:53:38.229Z,96.70
2022-09-07T00:56:27.449Z,96.10
2022-09-07T00:59:16.346Z,96.60
2022-09-07T01:02:04.648Z,96.60
2022-09-07T01:04:57.420Z,96.70
2022-09-07T01:07:45.554Z,97.70
2022-09-07T01:10:33.662Z,98.10
2022-09-07T01:13:21.817Z,98.70
2022-09-07T01:16:14.095Z,98.60
2022-09-07T01:19:08.642Z,98.70
2022-09-07T01:22:05.386Z,98.80
2022-09-07T01:25:02.450Z,98.90
2022-09-07T01:28:08.314Z,98.80
2022-09-07T01:30:58.500Z,98.30
2022-09-07T01:33:51.870Z,97.60
2022-09-07T01:36:45.117Z,97.30
2022-09-07T01:39:37.425Z,97.40
2022-09-07T01:42:28.572Z,95.60
2022-09-07T01:45:18.787Z,95.90
2022-09-07T01:48:09.440Z,97.40
2022-09-07T01:50:59.250Z,96.40
2022-09-07T01:53:50.686Z,97.40
2022-09-07T01:56:41.685Z,97.40
2022-09-07T01:59:30.838Z,98.10
2022-09-07T02:02:20.546Z,98.50
2022-09-07T02:05:11.183Z,98.10
2022-09-07T02:08:01.431Z,97.80
2022-09-07T02:10:50.607Z,98.40
2022-09-07T02:13:41.350Z,99.50
2022-09-07T02:16:30.159Z,99.90
2022-09-07T02:19:20.118Z,99.90
2022-09-07T02:22:11.389Z,99.90
2022-09-07T02:25:01.176Z,99.90
2022-09-07T02:27:50.835Z,99.90
2022-09-07T02:30:39.075Z,99.90
2022-09-07T02:33:27.292Z,99.90
2022-09-07T02:36:18.032Z,99.90
2022-09-07T02:39:07.250Z,99.90
2022-09-07T02:41:55.228Z,99.90
2022-09-07T02:44:44.683Z,99.90
2022-09-07T02:47:37.602Z,99.90
2022-09-07T02:50:30.761Z,99.90
2022-09-07T02:53:27.571Z,99.90
2022-09-07T02:56:21.256Z,99.90
2022-09-07T02:59:19.401Z,99.90
2022-09-07T03:02:13.021Z,99.90
2022-09-07T03:05:03.235Z,99.90
2022-09-07T03:07:53.905Z,99.90
2022-09-07T03:10:42.496Z,99.90
2022-09-07T03:13:31.674Z,99.90
2022-09-07T03:16:19.556Z,99.90
2022-09-07T03:19:07.459Z,99.90
2022-09-07T03:21:55.283Z,99.90
2022-09-07T03:24:43.506Z,99.90
2022-09-07T03:27:32.039Z,99.90
2022-09-07T03:30:21.475Z,99.90
2022-09-07T03:33:09.370Z,99.90
2022-09-07T03:36:02.377Z,99.90
2022-09-07T03:38:50.183Z,99.90
2022-09-07T03:41:38.000Z,99.90
2022-09-07T03:44:25.765Z,99.90
2022-09-07T03:47:14.937Z,99.90
2022-09-07T03:50:02.798Z,99.90
2022-09-07T03:52:50.617Z,99.90
2022-09-07T03:55:38.457Z,99.90
2022-09-07T03:58:26.397Z,99.90
2022-09-07T04:01:15.850Z,99.90
2022-09-07T04:04:05.275Z,99.90
2022-09-07T04:06:53.146Z,99.90
2022-09-07T04:09:41.010Z,99.90
2022-09-07T04:12:28.942Z,99.90
2022-09-07T04:15:16.770Z,99.90
2022-09-07T04:18:04.597Z,99.90
2022-09-07T04:20:53.865Z,99.90
2022-09-07T04:23:42.323Z,99.90
2022-09-07T04:26:30.987Z,99.90
2022-09-07T04:29:18.875Z,99.90
2022-09-07T04:32:06.764Z,99.90
2022-09-07T04:34:54.624Z,99.90
2022-09-07T04:37:44.593Z,99.90
2022-09-07T04:40:32.454Z,99.90
2022-09-07T04:43:20.289Z,99.90
2022-09-07T04:46:09.675Z,99.90
2022-09-07T04:48:59.163Z,99.90
2022-09-07T04:51:47.294Z,99.90
2022-09-07T04:54:36.505Z,99.90
2022-09-07T04:57:26.548Z,99.90
2022-09-07T05:00:14.858Z,99.90
2022-09-07T05:03:02.772Z,99.90
2022-09-07T05:05:50.717Z,99.90
2022-09-07T05:08:38.850Z,99.90
2022-09-07T05:11:29.739Z,99.90
2022-09-07T05:14:18.003Z,99.90
2022-09-07T05:17:06.040Z,99.90
2022-09-07T05:19:54.867Z,99.90
2022-09-07T05:22:42.738Z,99.90
2022-09-07T05:25:31.499Z,99.90
2022-09-07T05:28:20.707Z,99.90
2022-09-07T05:37:12.273Z,99.90
2022-09-07T05:40:00.265Z,99.90
2022-09-07T05:42:48.224Z,99.90
2022-09-07T05:45:37.511Z,99.90
2022-09-07T05:48:25.449Z,99.90
2022-09-07T05:51:14.057Z,99.90
2022-09-07T05:54:01.935Z,99.90
2022-09-07T05:56:49.887Z,99.90
2022-09-07T05:59:37.891Z,99.90
2022-09-07T06:02:27.117Z,99.90
2022-09-07T06:05:15.138Z,99.90
2022-09-07T06:08:03.109Z,99.90
2022-09-07T06:10:50.961Z,99.90
2022-09-07T06:13:40.043Z,99.90
2022-09-07T06:16:28.151Z,99.90
2022-09-07T06:19:17.444Z,99.90
2022-09-07T06:22:05.335Z,99.90
2022-09-07T06:24:53.178Z,99.90
2022-09-07T06:27:41.007Z,99.90
2022-09-07T06:30:29.450Z,99.90
2022-09-07T06:33:21.402Z,99.90
2022-09-07T06:36:12.639Z,99.90
2022-09-07T06:39:01.503Z,99.90
2022-09-07T06:42:04.901Z,99.90
2022-09-07T06:44:52.773Z,99.90
2022-09-07T06:47:40.781Z,99.90
2022-09-07T06:50:28.791Z,99.90
2022-09-07T06:56:21.357Z,99.90
2022-09-07T06:59:09.245Z,99.90
2022-09-07T07:01:57.200Z,99.90
2022-09-07T07:04:46.543Z,99.90
2022-09-07T07:07:35.225Z,99.90
2022-09-07T07:10:25.104Z,99.90
2022-09-07T07:13:13.121Z,99.90
2022-09-07T07:16:05.898Z,99.90
2022-09-07T07:18:55.933Z,99.90
2022-09-07T07:22:07.718Z,99.90
2022-09-07T07:24:52.003Z,99.90
2022-09-07T07:27:42.331Z,99.90
2022-09-07T07:30:30.214Z,99.90
2022-09-07T07:33:18.050Z,99.90
2022-09-07T07:36:12.875Z,99.90
2022-09-07T07:39:01.489Z,99.90
2022-09-07T07:44:44.896Z,99.90
2022-09-07T07:47:32.872Z,99.90
2022-09-07T07:50:36.264Z,99.90
2022-09-07T07:53:41.648Z,99.90
2022-09-07T07:56:30.184Z,99.90
2022-09-07T07:59:18.019Z,99.90
2022-09-07T08:02:08.880Z,99.90
2022-09-07T08:04:57.076Z,99.90
2022-09-07T08:07:44.890Z,99.90
2022-09-07T08:10:35.870Z,99.90
2022-09-07T08:13:23.638Z,99.90
2022-09-07T08:16:11.803Z,99.90
2022-09-07T08:19:01.166Z,99.90
2022-09-07T08:21:49.006Z,99.90
2022-09-07T08:24:36.851Z,99.90
2022-09-07T08:27:24.628Z,99.90
2022-09-07T08:30:12.542Z,99.90
2022-09-07T08:33:00.330Z,99.90
2022-09-07T08:35:57.195Z,99.90
2022-09-07T08:38:45.013Z,99.90
2022-09-07T08:41:49.421Z,99.90
2022-09-07T08:44:39.980Z,99.90
2022-09-07T08:47:31.651Z,99.90
2022-09-07T08:50:21.208Z,99.90
2022-09-07T08:53:13.661Z,99.90
2022-09-07T08:56:05.097Z,99.90
2022-09-07T08:58:54.166Z,99.90
2022-09-07T09:01:44.081Z,99.90
2022-09-07T09:08:04.548Z,99.90
2022-09-07T09:10:58.162Z,99.90
2022-09-07T09:13:52.160Z,99.90
2022-09-07T09:16:43.640Z,99.90
2022-09-07T09:19:37.832Z,99.90
2022-09-07T09:22:28.518Z,99.90
2022-09-07T09:25:19.019Z,99.90
2022-09-07T09:28:09.320Z,99.90
2022-09-07T09:30:57.285Z,99.90
2022-09-07T09:33:45.160Z,99.90
2022-09-07T09:36:34.375Z,99.90
2022-09-07T09:39:26.358Z,99.90
2022-09-07T09:42:16.070Z,99.90
2022-09-07T09:45:07.294Z,99.90
2022-09-07T09:47:55.510Z,99.90
2022-09-07T09:54:00.554Z,99.90
2022-09-07T09:56:49.077Z,99.90
2022-09-07T10:06:07.735Z,99.90
2022-09-07T10:08:57.382Z,99.90
2022-09-07T10:14:56.484Z,99.90
2022-09-07T10:17:49.814Z,99.90
2022-09-07T10:20:38.751Z,99.90
2022-09-07T10:23:28.409Z,99.90
2022-09-07T10:26:27.264Z,99.90
2022-09-07T10:29:16.575Z,99.90
2022-09-07T10:32:19.477Z,99.90
2022-09-07T10:35:16.303Z,99.90
2022-09-07T10:38:10.564Z,99.90
2022-09-07T10:41:00.895Z,99.90
2022-09-07T10:43:50.365Z,99.90
2022-09-07T10:47:01.175Z,99.90
2022-09-07T10:53:18.319Z,99.90
2022-09-07T10:56:16.363Z,99.90
2022-09-07T10:59:09.057Z,99.90
2022-09-07T11:02:01.290Z,99.90
2022-09-07T11:04:52.726Z,99.90
2022-09-07T11:07:58.569Z,99.90
2022-09-07T11:10:52.389Z,99.90
2022-09-07T11:14:08.986Z,99.90
2022-09-07T11:16:51.924Z,99.90
2022-09-07T11:19:43.167Z,99.90
2022-09-07T11:22:34.319Z,99.90
2022-09-07T11:25:32.618Z,99.90
2022-09-07T11:28:24.194Z,99.90
2022-09-07T11:31:17.659Z,99.90
2022-09-07T11:37:19.618Z,99.90
2022-09-07T11:40:13.708Z,99.90
2022-09-07T11:43:04.680Z,99.90
2022-09-07T11:45:55.539Z,99.90
2022-09-07T11:48:44.949Z,99.90
2022-09-07T11:51:38.690Z,99.90
2022-09-07T11:54:31.923Z,99.90
2022-09-07T11:57:30.511Z,99.90
2022-09-07T12:00:20.161Z,99.90
2022-09-07T12:03:22.672Z,99.90
2022-09-07T12:06:22.408Z,99.90
2022-09-07T12:09:18.170Z,99.70
2022-09-07T12:12:17.665Z,99.90
2022-09-07T12:15:13.593Z,99.90
2022-09-07T12:18:12.922Z,99.90
2022-09-07T12:21:02.143Z,99.90
2022-09-07T12:23:49.960Z,99.90
2022-09-07T12:26:50.147Z,99.70
2022-09-07T12:29:44.973Z,99.80
2022-09-07T12:32:54.333Z,99.80
2022-09-07T12:35:43.990Z,99.00
2022-09-07T12:38:56.026Z,99.70
2022-09-07T12:41:47.353Z,99.10
2022-09-07T12:44:36.084Z,96.70
2022-09-07T12:47:27.980Z,97.00
2022-09-07T12:50:22.645Z,97.00
2022-09-07T12:53:25.054Z,97.20
2022-09-07T12:56:20.723Z,97.10
2022-09-07T12:59:20.409Z,97.00
2022-09-07T13:02:18.138Z,97.60
2022-09-07T13:05:14.434Z,94.60
2022-09-07T13:08:24.379Z,93.00
2022-09-07T13:11:16.854Z,91.90
2022-09-07T13:14:08.799Z,90.00
2022-09-07T13:17:16.466Z,93.40
2022-09-07T13:20:07.427Z,93.60
2022-09-07T13:22:55.954Z,87.60
2022-09-07T13:25:45.582Z,83.70
2022-09-07T13:28:37.771Z,90.90
2022-09-07T13:31:34.305Z,91.20
2022-09-07T13:34:46.060Z,90.90
2022-09-07T13:37:38.293Z,79.60
2022-09-07T13:40:27.055Z,84.40
2022-09-07T13:43:17.018Z,90.50
2022-09-07T13:46:10.444Z,91.50
2022-09-07T13:49:02.199Z,92.50
2022-09-07T13:51:53.127Z,92.30
2022-09-07T13:54:54.906Z,94.40
2022-09-07T13:57:49.863Z,94.30
2022-09-07T14:00:37.784Z,94.90
2022-09-07T14:03:26.890Z,91.30
2022-09-07T14:06:15.939Z,92.00
2022-09-07T14:09:05.508Z,94.20
2022-09-07T14:11:55.084Z,91.40
2022-09-07T14:14:42.895Z,92.20
2022-09-07T14:17:31.299Z,95.40
2022-09-07T14:20:19.290Z,96.00
2022-09-07T14:23:11.730Z,95.90
2022-09-07T14:26:17.542Z,96.50
2022-09-07T14:29:21.905Z,95.40
2022-09-07T14:32:11.740Z,96.20
2022-09-07T14:34:59.611Z,94.90
2022-09-07T14:37:48.039Z,95.70
2022-09-07T14:40:36.798Z,95.40
2022-09-07T14:43:29.135Z,95.20
2022-09-07T14:46:19.977Z,95.00
2022-09-07T14:49:18.237Z,94.00
2022-09-07T14:52:06.308Z,94.80
2022-09-07T14:54:54.357Z,94.10
2022-09-07T14:57:42.160Z,93.90
2022-09-07T15:00:31.491Z,94.30
2022-09-07T15:03:31.676Z,94.10
2022-09-07T15:09:39.981Z,94.80
2022-09-07T15:12:38.220Z,95.60
2022-09-07T15:15:28.273Z,95.20
2022-09-07T15:18:31.105Z,95.20
2022-09-07T15:21:20.380Z,95.70
2022-09-07T15:24:08.276Z,95.50
2022-09-07T15:27:03.657Z,96.00
2022-09-07T15:29:51.731Z,96.00
2022-09-07T15:32:39.626Z,95.00
2022-09-07T15:35:27.778Z,95.20
2022-09-07T15:41:24.812Z,95.70
2022-09-07T15:44:13.852Z,96.30
2022-09-07T15:50:10.357Z,96.30
2022-09-07T15:53:00.862Z,96.80
2022-09-07T15:55:55.136Z,96.90
2022-09-07T15:58:43.927Z,97.00
2022-09-07T16:04:39.881Z,97.70
2022-09-07T16:08:24.936Z,98.00
2022-09-07T16:10:35.527Z,98.30
2022-09-07T16:13:24.783Z,98.40
2022-09-07T16:16:15.687Z,98.60
2022-09-07T16:19:07.233Z,98.80
2022-09-07T16:21:57.590Z,99.20
2022-09-07T16:24:45.745Z,99.60
2022-09-07T16:27:34.023Z,99.60
2022-09-07T16:30:23.183Z,99.90
2022-09-07T16:33:10.972Z,99.90
2022-09-07T16:35:59.683Z,99.90
2022-09-07T16:38:49.060Z,99.90
2022-09-07T16:41:36.930Z,99.90
2022-09-07T16:44:24.743Z,99.90
2022-09-07T16:47:13.986Z,99.90
2022-09-07T16:50:01.798Z,99.90
2022-09-07T16:52:49.622Z,99.90
2022-09-07T16:55:37.462Z,99.90
2022-09-07T16:58:41.741Z,99.90
2022-09-07T17:01:30.845Z,99.90
2022-09-07T17:04:20.132Z,99.90
2022-09-07T17:07:08.083Z,99.90
2022-09-07T17:09:55.853Z,99.90
2022-09-07T17:12:43.754Z,99.90
2022-09-07T17:15:33.579Z,99.90
2022-09-07T17:19:28.863Z,99.90
2022-09-07T17:21:31.266Z,99.90
2022-09-07T17:24:20.855Z,99.90
2022-09-07T17:27:08.896Z,99.90
2022-09-07T17:29:57.017Z,99.90
2022-09-07T17:32:47.152Z,99.90
2022-09-07T17:35:37.402Z,99.90
2022-09-07T17:41:34.530Z,99.90
2022-09-07T17:44:23.233Z,99.90
2022-09-07T17:47:11.217Z,99.90
2022-09-07T17:49:58.973Z,99.90
2022-09-07T17:52:47.113Z,99.90
2022-09-07T17:55:41.518Z,99.90
2022-09-07T17:58:29.582Z,99.90
2022-09-07T18:01:18.701Z,99.90
2022-09-07T18:04:06.542Z,99.90
2022-09-07T18:06:55.783Z,99.90
2022-09-07T18:09:43.622Z,99.90
2022-09-07T18:12:33.082Z,99.90
2022-09-07T18:15:22.104Z,99.90
2022-09-07T18:18:12.470Z,99.90
2022-09-07T18:21:00.243Z,99.90
2022-09-07T18:23:48.623Z,99.90
2022-09-07T18:26:38.377Z,99.90
2022-09-07T18:29:32.518Z,99.90
2022-09-07T18:32:21.574Z,99.90
2022-09-07T18:35:09.918Z,99.90
2022-09-07T18:37:57.920Z,99.90
2022-09-07T18:40:45.745Z,99.90
2022-09-07T18:43:33.732Z,99.90
2022-09-07T18:46:25.341Z,99.90
2022-09-07T18:49:14.782Z,99.90
2022-09-07T18:55:10.989Z,99.90
2022-09-07T18:58:02.766Z,99.90
2022-09-07T19:00:54.716Z,99.90
2022-09-07T19:03:43.993Z,99.90
2022-09-07T19:06:31.834Z,99.90
2022-09-07T19:09:19.695Z,99.90
2022-09-07T19:12:10.003Z,99.90
2022-09-07T19:14:57.919Z,99.90
2022-09-07T19:17:45.739Z,99.90
2022-09-07T19:20:35.630Z,99.90
2022-09-07T19:23:23.434Z,99.90
2022-09-07T19:26:11.349Z,99.90
2022-09-07T19:29:00.310Z,99.90
2022-09-07T19:32:04.034Z,99.90
2022-09-07T19:34:54.547Z,99.90
2022-09-07T19:37:43.692Z,99.90
2022-09-07T19:40:31.446Z,99.90
2022-09-07T19:43:19.301Z,99.90
2022-09-07T19:46:07.256Z,99.90
2022-09-07T19:48:57.425Z,99.90
2022-09-07T19:51:45.235Z,99.90
2022-09-07T19:54:36.360Z,99.90
2022-09-07T19:57:24.212Z,99.90
2022-09-07T20:00:12.963Z,99.90
2022-09-07T20:03:00.882Z,99.90
2022-09-07T20:05:48.683Z,99.90
2022-09-07T20:08:36.506Z,99.90
2022-09-07T20:11:26.052Z,99.90
2022-09-07T20:14:14.086Z,99.90
2022-09-07T20:17:02.418Z,99.90
2022-09-07T20:19:50.990Z,99.90
2022-09-07T20:22:38.996Z,99.90
2022-09-07T20:25:26.848Z,99.90
2022-09-07T20:28:16.074Z,99.90
2022-09-07T20:31:08.246Z,99.90
2022-09-07T20:33:56.279Z,99.90
2022-09-07T20:36:44.406Z,99.90
2022-09-07T20:39:36.981Z,99.90
2022-09-07T20:42:26.916Z,99.90
2022-09-07T20:45:16.176Z,99.90
2022-09-07T20:48:04.276Z,99.90
2022-09-07T20:50:56.330Z,99.90
2022-09-07T20:53:44.131Z,99.90
2022-09-07T20:56:31.963Z,99.90
2022-09-07T20:59:19.757Z,99.90
2022-09-07T21:02:09.775Z,99.90
2022-09-07T21:04:57.798Z,99.90
2022-09-07T21:07:45.619Z,99.90
2022-09-07T21:10:33.571Z,99.90
2022-09-07T21:13:21.391Z,99.90
2022-09-07T21:16:09.806Z,99.90
2022-09-07T21:18:59.682Z,99.90
2022-09-07T21:21:47.444Z,99.90
2022-09-07T21:24:35.253Z,99.90
2022-09-07T21:27:23.035Z,99.90
2022-09-07T21:30:11.367Z,99.90
2022-09-07T21:33:02.913Z,99.90
2022-09-07T21:35:53.211Z,99.90
2022-09-07T21:38:41.955Z,99.90
2022-09-07T21:41:29.769Z,99.90
2022-09-07T21:44:17.636Z,99.90
2022-09-07T21:47:05.596Z,99.90
2022-09-07T21:49:53.535Z,99.90
2022-09-07T21:52:42.701Z,99.90
2022-09-07T21:55:30.478Z,99.90
2022-09-07T21:58:18.278Z,99.90
2022-09-07T22:01:10.627Z,99.90
2022-09-07T22:03:59.301Z,99.90
2022-09-07T22:06:47.109Z,99.90
2022-09-07T22:09:36.315Z,99.90
2022-09-07T22:12:24.325Z,99.90
2022-09-07T22:15:12.160Z,99.90
2022-09-07T22:18:00.208Z,99.90
2022-09-07T22:20:47.984Z,99.90
2022-09-07T22:23:36.823Z,99.90
2022-09-07T22:26:26.924Z,99.90
2022-09-07T22:29:14.805Z,99.90
2022-09-07T22:32:02.809Z,99.90
2022-09-07T22:34:51.622Z,99.90
2022-09-07T22:37:39.411Z,99.90
2022-09-07T22:40:27.253Z,99.90
2022-09-07T22:43:16.409Z,99.90
2022-09-07T22:46:04.265Z,99.90
2022-09-07T22:48:54.343Z,99.90
2022-09-07T22:51:42.254Z,99.90
2022-09-07T22:54:30.181Z,99.90
2022-09-07T22:57:18.944Z,99.90
2022-09-07T23:00:09.224Z,99.90
2022-09-07T23:02:57.068Z,99.90
2022-09-07T23:05:44.862Z,99.90
2022-09-07T23:08:32.803Z,99.90
2022-09-07T23:11:20.747Z,99.90
2022-09-07T23:14:09.649Z,99.90
2022-09-07T23:16:58.785Z,99.90
2022-09-07T23:19:46.574Z,99.90
2022-09-07T23:22:34.591Z,99.90
2022-09-07T23:25:22.643Z,99.90
2022-09-07T23:28:11.977Z,99.90
2022-09-07T23:31:00.055Z,99.90
2022-09-07T23:33:49.402Z,99.90
2022-09-07T23:36:37.647Z,99.90
2022-09-07T23:39:25.491Z,99.90
2022-09-07T23:42:13.292Z,99.90
2022-09-07T23:45:01.389Z,99.90
2022-09-07T23:47:49.166Z,99.90
2022-09-07T23:50:38.298Z,99.90
2022-09-07T23:53:26.209Z,99.90
2022-09-07T23:56:14.162Z,99.90
2022-09-07T23:59:01.977Z,99.90
